Time;durP1;ratioP1;P1;durP2;ratioP2;P2;SDS_P1;SDS_P2;PMS_P1;PMS_P2;Temp;Humidity;BMP_temperature;BMP_pressure;BME280_temperature;BME280_humidity;BME280_pressure;Samples;Min_cycle;Max_cycle;Signal;HPM_P1;HPM_P2
2022/08/29 00:00:55;;;;;;;169.82;81.97;;;;;;;20.95;100.00;102070.97;5076363;28;20028;-58
2022/08/29 00:03:21;;;;;;;256.15;122.63;;;;;;;20.95;100.00;102068.25;5077080;28;20044;-56
2022/08/29 00:05:46;;;;;;;56.97;25.13;;;;;;;20.99;100.00;102064.03;5079968;28;20084;-55
2022/08/29 00:08:11;;;;;;;23.35;11.32;;;;;;;20.63;100.00;102060.41;5080669;28;20071;-56
2022/08/29 00:10:38;;;;;;;13.93;5.00;;;;;;;20.70;100.00;102055.69;5082396;28;20037;-57
2022/08/29 00:13:06;;;;;;;6.57;2.67;;;;;;;20.57;100.00;102062.16;5079749;28;20036;-57
2022/08/29 00:15:32;;;;;;;6.70;2.30;;;;;;;20.54;100.00;102069.97;5084911;28;20270;-57
2022/08/29 00:17:58;;;;;;;8.10;2.97;;;;;;;20.60;100.00;102069.84;5082988;28;20282;-57
2022/08/29 00:20:27;;;;;;;7.47;2.67;;;;;;;20.58;100.00;102066.53;5081905;28;20029;-55
2022/08/29 00:22:53;;;;;;;7.57;2.17;;;;;;;20.68;100.00;102054.28;5081488;28;20041;-53
2022/08/29 00:25:19;;;;;;;5.60;2.03;;;;;;;20.57;100.00;102061.34;5074216;28;20286;-56
2022/08/29 00:27:45;;;;;;;4.40;1.85;;;;;;;20.56;100.00;102060.50;5083564;28;20032;-56
2022/08/29 00:30:11;;;;;;;8.07;1.83;;;;;;;20.52;100.00;102069.34;5083938;28;20029;-57
2022/08/29 00:32:37;;;;;;;;;;;;;;;20.45;100.00;102070.28;5082130;28;20039;-57
2022/08/29 00:35:13;;;;;;;7.73;2.40;;;;;;;19.98;100.00;102064.69;5077881;28;19913;-59
2022/08/29 00:37:45;;;;;;;5.00;2.10;;;;;;;20.25;100.00;102054.28;5079787;28;20334;-57
2022/08/29 00:40:16;;;;;;;7.43;2.40;;;;;;;19.96;100.00;102054.06;5079243;28;20250;-57
2022/08/29 00:42:43;;;;;;;5.57;2.20;;;;;;;19.94;100.00;102053.44;5084018;28;20053;-58
2022/08/29 00:45:11;;;;;;;7.40;2.08;;;;;;;19.85;100.00;102068.38;5081795;28;20273;-58
2022/08/29 00:47:46;;;;;;;5.20;1.97;;;;;;;19.62;100.00;102070.72;5082720;28;20117;-57
2022/08/29 00:50:23;;;;;;;10.00;1.77;;;;;;;19.68;100.00;102068.16;5080818;28;20777;-57
2022/08/29 00:52:49;;;;;;;7.90;1.87;;;;;;;19.58;100.00;102077.63;5077150;28;20284;-58
2022/08/29 00:55:21;;;;;;;6.20;1.98;;;;;;;19.76;100.00;102073.28;5081442;28;20257;-61
2022/08/29 00:57:51;;;;;;;6.30;1.80;;;;;;;19.83;100.00;102073.19;5078973;28;20088;-57
2022/08/29 01:00:16;;;;;;;4.97;2.10;;;;;;;19.82;100.00;102072.34;5081712;28;20246;-59
2022/08/29 01:02:43;;;;;;;6.07;1.90;;;;;;;19.80;100.00;102074.47;5080616;28;20329;-58
2022/08/29 01:05:10;;;;;;;11.15;2.25;;;;;;;19.61;100.00;102071.78;5079748;28;20049;-59
2022/08/29 01:07:37;;;;;;;7.67;2.60;;;;;;;19.69;100.00;102072.53;5079532;28;20045;-58
2022/08/29 01:10:05;;;;;;;11.73;3.20;;;;;;;19.68;100.00;102076.31;5079308;28;20323;-57
2022/08/29 01:12:32;;;;;;;21.13;9.53;;;;;;;19.70;100.00;102074.19;5080892;28;20266;-55
2022/08/29 01:15:01;;;;;;;18.53;7.87;;;;;;;19.35;100.00;102070.19;5075999;28;20281;-55
2022/08/29 01:17:32;;;;;;;10.63;2.70;;;;;;;19.29;100.00;102071.91;5081276;28;20274;-57
2022/08/29 01:20:23;;;;;;;7.30;2.57;;;;;;;19.24;100.00;102074.47;5081410;28;20261;-57
2022/08/29 01:22:52;;;;;;;10.80;2.47;;;;;;;19.43;100.00;102080.72;5078414;28;20289;-60
2022/08/29 01:25:21;;;;;;;7.93;2.50;;;;;;;19.08;100.00;102083.16;5078982;28;20271;-57
2022/08/29 01:27:53;;;;;;;4.73;2.10;;;;;;;18.98;100.00;102086.34;5081587;28;20265;-61
2022/08/29 01:30:19;;;;;;;8.73;2.97;;;;;;;18.94;100.00;102085.97;5078279;28;20317;-54
2022/08/29 01:32:45;;;;;;;6.45;2.35;;;;;;;18.91;100.00;102081.81;5077535;28;20269;-54
2022/08/29 01:35:11;;;;;;;5.27;2.30;;;;;;;18.90;100.00;102084.72;5080667;28;20072;-56
2022/08/29 01:37:38;;;;;;;;;;;;;;;19.19;100.00;102085.16;5079562;28;20261;-56
2022/08/29 01:40:05;;;;;;;;;;;;;;;18.97;100.00;102092.81;5082224;28;19924;-57
2022/08/29 01:42:30;;;;;;;10.90;2.93;;;;;;;19.13;100.00;102086.88;5075698;28;19991;-53
2022/08/29 01:44:59;;;;;;;6.78;2.78;;;;;;;18.89;100.00;102092.03;5080028;28;20036;-56
2022/08/29 01:47:28;;;;;;;7.93;2.97;;;;;;;18.92;100.00;102079.94;5080298;28;20036;-55
2022/08/29 01:49:54;;;;;;;5.90;2.67;;;;;;;18.94;100.00;102080.56;5078475;28;20285;-57
2022/08/29 01:52:21;;;;;;;8.38;2.67;;;;;;;18.85;100.00;102073.72;5083214;28;20261;-57
2022/08/29 01:54:46;;;;;;;10.98;2.60;;;;;;;18.93;100.00;102070.75;5081984;28;20037;-57
2022/08/29 01:57:13;;;;;;;10.38;3.42;;;;;;;18.82;100.00;102068.75;5080560;28;20078;-57
2022/08/29 01:59:39;;;;;;;7.07;2.67;;;;;;;18.90;100.00;102065.75;5079294;28;20033;-57
2022/08/29 02:02:16;;;;;;;7.57;3.30;;;;;;;18.89;100.00;102058.69;5082126;28;20269;-58
2022/08/29 02:04:44;;;;;;;;;;;;;;;18.91;100.00;102065.53;5094896;28;20043;-55
2022/08/29 02:07:09;;;;;;;;;;;;;;;18.89;100.00;102074.94;5077598;28;19912;-57
2022/08/29 02:09:36;;;;;;;9.10;3.60;;;;;;;18.85;100.00;102071.03;5078644;28;19936;-57
2022/08/29 02:12:05;;;;;;;9.13;3.50;;;;;;;18.48;100.00;102074.41;5078251;28;20106;-58
2022/08/29 02:14:31;;;;;;;5.70;2.83;;;;;;;18.52;100.00;102080.22;5079225;28;20037;-57
2022/08/29 02:16:56;;;;;;;6.63;3.10;;;;;;;18.56;100.00;102073.31;5075638;28;20341;-57
2022/08/29 02:19:22;;;;;;;9.30;3.55;;;;;;;18.58;100.00;102069.38;5076510;28;20052;-57
2022/08/29 02:21:49;;;;;;;14.37;3.40;;;;;;;18.58;100.00;102076.66;5078456;28;20050;-58
2022/08/29 02:24:16;;;;;;;8.97;3.40;;;;;;;18.54;100.00;102075.44;5078985;28;20273;-58
2022/08/29 02:26:43;;;;;;;6.27;2.57;;;;;;;18.51;100.00;102073.97;5077983;28;20265;-58
2022/08/29 02:29:11;;;;;;;8.67;3.20;;;;;;;18.43;100.00;102069.66;5078366;28;20308;-58
2022/08/29 02:31:39;;;;;;;9.70;3.17;;;;;;;18.46;100.00;102069.22;5074727;28;20312;-58
2022/08/29 02:34:05;;;;;;;12.20;3.67;;;;;;;18.36;100.00;102082.41;5078455;28;20316;-58
2022/08/29 02:36:31;;;;;;;8.83;3.23;;;;;;;18.19;100.00;102074.78;5070638;28;20277;-57
2022/08/29 02:38:56;;;;;;;6.97;2.67;;;;;;;18.21;100.00;102077.28;5082994;28;20305;-55
2022/08/29 02:41:22;;;;;;;13.88;3.47;;;;;;;18.08;100.00;102088.16;5081625;28;20059;-55
2022/08/29 02:43:48;;;;;;;11.67;3.07;;;;;;;18.18;100.00;102086.66;5078121;28;20048;-57
2022/08/29 02:46:18;;;;;;;6.32;3.03;;;;;;;18.24;100.00;102087.69;5079576;28;20058;-56
2022/08/29 02:48:46;;;;;;;12.33;3.17;;;;;;;18.32;100.00;102086.59;5073617;28;20041;-57
2022/08/29 02:51:31;;;;;;;7.10;3.00;;;;;;;18.33;100.00;102077.44;5073050;28;20262;-58
2022/08/29 02:53:58;;;;;;;8.20;3.37;;;;;;;18.31;100.00;102090.34;5069509;28;20277;-56
2022/08/29 02:56:24;;;;;;;6.55;3.00;;;;;;;18.43;100.00;102094.03;5070201;28;20285;-57
2022/08/29 02:58:50;;;;;;;;;;;;;;;18.60;100.00;102096.22;5076812;28;20099;-57
2022/08/29 03:01:19;;;;;;;7.63;3.03;;;;;;;18.58;100.00;102095.59;5071199;28;19919;-57
2022/08/29 03:03:44;;;;;;;9.27;3.20;;;;;;;18.51;100.00;102097.53;5075210;28;20029;-57
2022/08/29 03:06:11;;;;;;;9.93;3.07;;;;;;;18.48;100.00;102093.38;5075838;28;20281;-58
2022/08/29 03:08:38;;;;;;;9.57;3.30;;;;;;;18.48;100.00;102093.38;5076447;28;20033;-57
2022/08/29 03:11:04;;;;;;;9.05;3.17;;;;;;;18.43;100.00;102093.19;5083716;28;20286;-56
2022/08/29 03:13:32;;;;;;;6.80;3.43;;;;;;;18.35;100.00;102086.16;5081106;28;20036;-57
2022/08/29 03:15:58;;;;;;;8.57;4.23;;;;;;;18.35;100.00;102083.47;5080312;28;20308;-57
2022/08/29 03:18:23;;;;;;;9.73;3.85;;;;;;;18.34;100.00;102090.75;5080756;28;20361;-57
2022/08/29 03:20:49;;;;;;;8.27;3.58;;;;;;;18.29;100.00;102087.03;5072266;28;20059;-58
2022/08/29 03:23:14;;;;;;;9.77;3.70;;;;;;;17.92;100.00;102085.72;5076780;28;20032;-57
2022/08/29 03:25:40;;;;;;;11.57;4.23;;;;;;;18.16;100.00;102077.94;5072672;28;20013;-57
2022/08/29 03:28:07;;;;;;;7.28;3.60;;;;;;;18.14;100.00;102077.31;5077478;28;20051;-57
2022/08/29 03:30:33;;;;;;;6.40;3.70;;;;;;;18.11;100.00;102075.03;5074480;28;20034;-58
2022/08/29 03:32:58;;;;;;;9.95;3.03;;;;;;;18.11;100.00;102064.22;5075329;28;20313;-57
2022/08/29 03:35:24;;;;;;;12.73;3.85;;;;;;;18.10;100.00;102065.25;5076094;28;20036;-59
2022/08/29 03:37:53;;;;;;;10.25;3.88;;;;;;;18.04;100.00;102074.25;5081450;28;20063;-59
2022/08/29 03:40:22;;;;;;;13.13;3.93;;;;;;;17.96;100.00;102077.16;5074224;28;20029;-58
2022/08/29 03:42:47;;;;;;;10.43;4.17;;;;;;;18.00;100.00;102073.00;5077815;28;20357;-58
2022/08/29 03:45:17;;;;;;;5.80;3.28;;;;;;;17.98;100.00;102072.34;5077104;28;20270;-59
2022/08/29 03:47:43;;;;;;;9.60;4.23;;;;;;;18.02;100.00;102070.94;5079917;28;20040;-59
2022/08/29 03:50:10;;;;;;;9.13;4.03;;;;;;;17.99;100.00;102061.31;5079552;28;20289;-58
2022/08/29 03:52:36;;;;;;;8.90;4.00;;;;;;;17.97;100.00;102068.00;5078815;28;20087;-59
2022/08/29 03:55:03;;;;;;;11.57;4.00;;;;;;;17.92;100.00;102066.75;5080647;28;20278;-58
2022/08/29 03:57:31;;;;;;;10.07;4.37;;;;;;;17.92;100.00;102071.38;5076599;28;20037;-58
2022/08/29 03:59:57;;;;;;;8.53;4.17;;;;;;;17.52;100.00;102069.59;5081267;28;20284;-58
2022/08/29 04:02:23;;;;;;;9.00;4.00;;;;;;;17.50;100.00;102068.97;5075114;28;20279;-58
2022/08/29 04:05:07;;;;;;;8.88;3.95;;;;;;;17.57;100.00;102066.28;5080016;28;20044;-57
2022/08/29 04:07:58;;;;;;;8.17;4.00;;;;;;;17.85;100.00;102062.41;5080762;28;20025;-59
2022/08/29 04:10:33;;;;;;;8.10;4.20;;;;;;;17.65;100.00;102059.81;5081104;28;20287;-59
2022/08/29 04:12:59;;;;;;;7.80;4.23;;;;;;;17.84;100.00;102061.59;5078858;28;20317;-59
2022/08/29 04:15:28;;;;;;;6.40;3.87;;;;;;;17.74;100.00;102066.63;5081790;28;20278;-57
2022/08/29 04:17:56;;;;;;;17.13;4.87;;;;;;;17.60;100.00;102060.44;5079247;28;20269;-58
2022/08/29 04:20:24;;;;;;;9.07;3.80;;;;;;;17.49;100.00;102068.16;5080231;28;20273;-60
2022/08/29 04:22:50;;;;;;;11.27;4.47;;;;;;;17.47;100.00;102064.00;5085326;28;20397;-58
2022/08/29 04:25:16;;;;;;;9.93;4.18;;;;;;;17.46;100.00;102073.16;5083182;28;20290;-60
2022/08/29 04:27:43;;;;;;;7.10;4.13;;;;;;;17.40;100.00;102057.78;5089562;28;20060;-59
2022/08/29 04:30:14;;;;;;;10.57;4.72;;;;;;;17.33;100.00;102057.78;5079565;28;20281;-58
2022/08/29 04:32:40;;;;;;;12.97;5.33;;;;;;;17.28;100.00;102054.91;5080520;28;20041;-58
2022/08/29 04:35:07;;;;;;;9.63;5.03;;;;;;;17.22;100.00;102055.75;5081398;28;20295;-58
2022/08/29 04:37:33;;;;;;;10.97;4.90;;;;;;;17.17;100.00;102059.91;5079677;28;20262;-58
2022/08/29 04:39:59;;;;;;;8.93;4.97;;;;;;;17.17;100.00;102067.19;5080175;28;20333;-59
2022/08/29 04:42:25;;;;;;;25.05;12.88;;;;;;;17.17;100.00;102056.38;5081323;28;20056;-57
2022/08/29 04:44:51;;;;;;;17.27;8.70;;;;;;;17.48;100.00;102052.16;5081087;28;20079;-58
2022/08/29 04:47:20;;;;;;;14.82;7.45;;;;;;;17.63;100.00;102063.56;5077983;28;20035;-58
2022/08/29 04:49:46;;;;;;;16.77;7.37;;;;;;;17.69;100.00;102067.28;5083031;28;20035;-58
2022/08/29 04:52:12;;;;;;;18.15;7.45;;;;;;;17.76;100.00;102073.50;5082172;28;20274;-58
2022/08/29 04:54:38;;;;;;;18.60;8.33;;;;;;;17.94;100.00;102076.53;5081699;28;20079;-58
2022/08/29 04:57:03;;;;;;;47.63;21.58;;;;;;;18.04;100.00;102076.97;5081741;28;20274;-58
2022/08/29 04:59:29;;;;;;;43.20;20.00;;;;;;;18.20;100.00;102078.34;5082655;28;20059;-58
2022/08/29 05:01:55;;;;;;;20.70;9.93;;;;;;;18.26;100.00;102074.75;5082708;28;20032;-58
2022/08/29 05:04:20;;;;;;;24.77;13.20;;;;;;;18.32;100.00;102073.06;5082712;28;20048;-58
2022/08/29 05:06:46;;;;;;;52.73;22.63;;;;;;;18.37;100.00;102070.53;5078445;28;20033;-58
2022/08/29 05:09:11;;;;;;;27.10;10.82;;;;;;;18.24;100.00;102078.75;5076181;28;20128;-59
2022/08/29 05:11:39;;;;;;;17.33;7.82;;;;;;;18.13;100.00;102075.66;5078233;28;20060;-59
2022/08/29 05:14:04;;;;;;;21.33;9.93;;;;;;;18.11;100.00;102085.06;5074978;28;20076;-58
2022/08/29 05:16:31;;;;;;;16.05;7.10;;;;;;;18.43;100.00;102080.47;5077801;28;20258;-60
2022/08/29 05:18:58;;;;;;;13.27;6.00;;;;;;;18.69;100.00;102094.06;5079626;28;20055;-57
2022/08/29 05:21:31;;;;;;;35.63;17.97;;;;;;;18.92;100.00;102098.91;5081064;28;20051;-56
2022/08/29 05:23:58;;;;;;;24.53;10.83;;;;;;;18.94;100.00;102104.94;5079799;28;20271;-59
2022/08/29 05:26:30;;;;;;;10.03;4.93;;;;;;;19.05;100.00;102103.44;5080418;28;20269;-58
2022/08/29 05:28:56;;;;;;;17.57;7.73;;;;;;;19.04;100.00;102094.44;5084155;28;20265;-59
2022/08/29 05:31:22;;;;;;;15.32;7.65;;;;;;;18.55;100.00;102091.44;5082042;28;20340;-58
2022/08/29 05:33:47;;;;;;;15.03;4.80;;;;;;;18.60;100.00;102097.06;5085639;28;20068;-59
2022/08/29 05:36:13;;;;;;;11.02;4.10;;;;;;;18.50;100.00;102091.28;5082381;28;20021;-59
2022/08/29 05:38:38;;;;;;;10.68;4.43;;;;;;;18.46;100.00;102093.63;5083164;28;20056;-59
2022/08/29 05:41:05;;;;;;;9.85;4.18;;;;;;;18.56;100.00;102100.41;5082040;28;20043;-57
2022/08/29 05:43:32;;;;;;;15.67;4.67;;;;;;;18.60;100.00;102105.19;5081531;28;20037;-58
2022/08/29 05:46:03;;;;;;;12.57;3.93;;;;;;;18.57;100.00;102093.94;5077167;28;20265;-57
2022/08/29 05:48:30;;;;;;;16.47;3.70;;;;;;;19.00;100.00;102095.09;5072703;28;20300;-57
2022/08/29 05:50:56;;;;;;;11.90;4.30;;;;;;;19.22;100.00;102095.56;5076158;28;20301;-58
2022/08/29 05:53:21;;;;;;;14.27;4.13;;;;;;;19.41;100.00;102096.41;5074099;28;20280;-57
2022/08/29 05:55:46;;;;;;;10.70;4.10;;;;;;;19.45;100.00;102104.94;5069119;28;20038;-57
2022/08/29 05:58:12;;;;;;;11.17;4.13;;;;;;;19.48;100.00;102112.63;5075220;28;20052;-58
2022/08/29 06:00:39;;;;;;;12.85;4.07;;;;;;;19.51;100.00;102103.22;5073853;28;20033;-58
2022/08/29 06:03:05;;;;;;;10.07;3.90;;;;;;;19.52;100.00;102111.09;5069995;28;20040;-58
2022/08/29 06:05:31;;;;;;;11.23;4.25;;;;;;;19.67;100.00;102115.34;5070414;28;20293;-59
2022/08/29 06:07:57;;;;;;;14.33;4.67;;;;;;;19.77;100.00;102116.47;5074743;28;20052;-60
2022/08/29 06:10:22;;;;;;;11.90;4.80;;;;;;;19.85;100.00;102111.78;5084534;28;20045;-59
2022/08/29 06:12:48;;;;;;;21.80;5.75;;;;;;;19.91;100.00;102122.59;5073887;28;20092;-58
2022/08/29 06:15:13;;;;;;;15.27;5.87;;;;;;;20.01;100.00;102121.22;5074311;28;20033;-58
2022/08/29 06:17:39;;;;;;;14.80;4.82;;;;;;;19.91;100.00;102125.31;5074768;28;20032;-59
2022/08/29 06:20:08;;;;;;;32.33;4.93;;;;;;;19.96;100.00;102126.53;5079739;28;20112;-57
2022/08/29 06:22:34;;;;;;;18.30;4.67;;;;;;;20.01;100.00;102126.66;5077855;28;20029;-58
2022/08/29 06:25:00;;;;;;;12.05;3.92;;;;;;;20.18;100.00;102135.84;5080858;28;20275;-59
2022/08/29 06:27:25;;;;;;;19.67;4.55;;;;;;;20.28;100.00;102131.75;5082494;28;20040;-58
2022/08/29 06:29:50;;;;;;;13.80;3.63;;;;;;;20.40;100.00;102138.06;5079224;28;20041;-59
2022/08/29 06:32:16;;;;;;;11.52;3.38;;;;;;;20.48;100.00;102131.50;5078379;28;20119;-59
2022/08/29 06:34:42;;;;;;;8.13;3.35;;;;;;;20.40;100.00;102137.22;5074521;28;20029;-59
2022/08/29 06:37:07;;;;;;;7.22;3.17;;;;;;;20.18;100.00;102135.84;5076846;28;20032;-59
2022/08/29 06:39:33;;;;;;;11.73;3.28;;;;;;;20.36;100.00;102145.03;5075455;28;20021;-58
2022/08/29 06:41:59;;;;;;;13.75;3.65;;;;;;;20.47;100.00;102151.56;5078898;28;20052;-57
2022/08/29 06:44:25;;;;;;;12.60;3.65;;;;;;;20.43;100.00;102153.09;5078018;28;20076;-59
2022/08/29 06:46:51;;;;;;;11.38;3.60;;;;;;;20.57;100.00;102145.59;5075774;28;20033;-59
2022/08/29 06:49:19;;;;;;;8.75;3.45;;;;;;;20.77;100.00;102148.00;5077662;28;20061;-60
2022/08/29 06:51:53;;;;;;;9.97;3.67;;;;;;;20.82;100.00;102139.19;5076963;28;20040;-58
2022/08/29 06:54:22;;;;;;;7.20;2.80;;;;;;;20.82;100.00;102139.19;5078410;28;20033;-60
2022/08/29 06:56:49;;;;;;;9.23;3.30;;;;;;;21.05;100.00;102133.78;5080282;28;20028;-59
2022/08/29 06:59:16;;;;;;;13.23;4.43;;;;;;;21.22;100.00;102138.53;5076139;28;20028;-57
2022/08/29 07:01:42;;;;;;;11.80;4.00;;;;;;;21.43;100.00;102139.00;5077756;28;20044;-56
2022/08/29 07:04:09;;;;;;;10.57;3.73;;;;;;;21.51;100.00;102135.09;5078678;28;20033;-59
2022/08/29 07:06:36;;;;;;;15.13;4.27;;;;;;;21.59;100.00;102132.03;5078141;28;20096;-58
2022/08/29 07:09:03;;;;;;;14.03;3.70;;;;;;;21.63;100.00;102134.00;5083162;28;20035;-58
2022/08/29 07:11:30;;;;;;;10.60;3.43;;;;;;;21.80;100.00;102138.75;5079716;28;20063;-58
2022/08/29 07:13:57;;;;;;;4.47;2.47;;;;;;;21.72;100.00;102150.03;5071555;28;20033;-58
2022/08/29 07:16:24;;;;;;;7.90;2.80;;;;;;;21.79;100.00;102148.00;5071737;28;20056;-59
2022/08/29 07:18:50;;;;;;;6.13;2.23;;;;;;;21.62;100.00;102145.97;5071061;28;20041;-57
2022/08/29 07:21:18;;;;;;;3.58;1.80;;;;;;;21.50;100.00;102137.00;5072376;28;20017;-58
2022/08/29 07:23:43;;;;;;;5.47;2.60;;;;;;;21.87;100.00;102135.91;5075902;28;20067;-58
2022/08/29 07:26:29;;;;;;;5.40;2.63;;;;;;;21.92;100.00;102142.28;5078367;28;20081;-57
2022/08/29 07:28:59;;;;;;;6.97;2.57;;;;;;;22.03;100.00;102142.50;5078026;28;20033;-60
2022/08/29 07:31:25;;;;;;;6.60;1.80;;;;;;;22.12;100.00;102141.03;5075162;28;20028;-59
2022/08/29 07:33:51;;;;;;;;;;;;;;;22.15;100.00;102146.00;5079311;28;20033;-59
2022/08/29 07:36:16;;;;;;;9.20;2.60;;;;;;;22.24;100.00;102148.34;5070893;28;19919;-59
2022/08/29 07:38:42;;;;;;;7.70;2.75;;;;;;;22.35;100.00;102144.72;5075983;28;20071;-61
2022/08/29 07:41:13;;;;;;;6.00;2.63;;;;;;;22.31;100.00;102138.97;5073548;28;20029;-59
2022/08/29 07:43:40;;;;;;;17.23;3.47;;;;;;;22.53;100.00;102143.75;5073767;28;20040;-59
2022/08/29 07:46:12;;;;;;;9.53;2.80;;;;;;;22.22;100.00;102137.69;5073050;28;20032;-58
2022/08/29 07:48:38;;;;;;;4.43;2.23;;;;;;;21.94;100.00;102138.50;5072551;28;20036;-59
2022/08/29 07:51:09;;;;;;;8.77;2.95;;;;;;;22.16;100.00;102139.50;5069022;28;20025;-60
2022/08/29 07:53:35;;;;;;;11.87;3.20;;;;;;;22.38;100.00;102144.28;5068277;28;20040;-59
2022/08/29 07:56:11;;;;;;;;;;;;;;;22.39;100.00;102145.94;5065911;28;20021;-62
2022/08/29 07:58:37;;;;;;;10.77;3.17;;;;;;;22.82;100.00;102140.13;5071945;28;19912;-58
2022/08/29 08:01:04;;;;;;;5.28;2.25;;;;;;;23.08;100.00;102146.03;5073485;28;20035;-59
2022/08/29 08:03:30;;;;;;;5.43;2.40;;;;;;;23.14;100.00;102145.84;5081282;28;20455;-61
2022/08/29 08:05:56;;;;;;;9.77;3.20;;;;;;;23.12;100.00;102148.00;5076143;28;20029;-59
2022/08/29 08:08:22;;;;;;;20.02;8.60;;;;;;;23.14;100.00;102150.50;5074469;28;20039;-58
2022/08/29 08:10:47;;;;;;;118.63;60.97;;;;;;;23.23;100.00;102153.63;5070214;28;20037;-59
2022/08/29 08:13:12;;;;;;;73.18;37.90;;;;;;;23.38;100.00;102156.59;5072306;28;20100;-59
2022/08/29 08:15:38;;;;;;;41.53;20.42;;;;;;;23.02;100.00;102154.13;5071839;28;20045;-58
2022/08/29 08:18:04;;;;;;;17.13;7.28;;;;;;;22.84;100.00;102157.09;5074292;28;20036;-57
2022/08/29 08:20:30;;;;;;;;;;;;;;;22.99;100.00;102149.16;5071816;28;20052;-61
2022/08/29 08:22:56;;;;;;;17.20;5.17;;;;;;;22.84;100.00;102152.47;5072650;28;19913;-59
2022/08/29 08:25:22;;;;;;;7.88;2.85;;;;;;;23.29;100.00;102152.66;5075599;28;20029;-58
2022/08/29 08:27:48;;;;;;;11.17;5.30;;;;;;;23.70;100.00;102152.41;5080245;28;20029;-56
2022/08/29 08:30:14;;;;;;;26.90;13.25;;;;;;;23.87;100.00;102150.47;5078392;28;20036;-56
2022/08/29 08:32:40;;;;;;;135.48;72.60;;;;;;;24.26;100.00;102148.75;5080314;28;20063;-59
2022/08/29 08:35:06;;;;;;;22.10;11.23;;;;;;;24.02;100.00;102151.78;5083297;28;20032;-61
2022/08/29 08:37:32;;;;;;;14.40;6.28;;;;;;;24.42;100.00;102153.28;5083957;28;20111;-60
2022/08/29 08:39:58;;;;;;;36.15;16.77;;;;;;;24.54;100.00;102152.31;5078400;28;20035;-60
2022/08/29 08:42:42;;;;;;;13.05;5.75;;;;;;;24.49;100.00;102156.66;5074986;28;20069;-57
2022/08/29 08:45:25;;;;;;;19.10;7.23;;;;;;;24.31;100.00;102157.81;5072487;28;20029;-59
2022/08/29 08:47:57;;;;;;;14.23;7.13;;;;;;;24.40;100.00;102160.91;5079431;28;20033;-60
2022/08/29 08:51:00;;;;;;;11.63;5.27;;;;;;;24.10;100.00;102159.50;5080634;28;20044;-57
2022/08/29 08:53:33;;;;;;;19.97;8.77;;;;;;;24.62;100.00;102165.50;5075626;28;20089;-58
2022/08/29 08:56:04;;;;;;;65.37;32.43;;;;;;;24.25;98.41;102161.59;5081672;28;20067;-57
2022/08/29 08:58:46;;;;;;;32.07;15.57;;;;;;;24.06;100.00;102163.84;5079634;28;20047;-56
2022/08/29 09:01:19;;;;;;;62.60;32.70;;;;;;;24.29;100.00;102161.91;5080346;28;20021;-59
2022/08/29 09:04:07;;;;;;;70.10;33.00;;;;;;;24.88;100.00;102161.13;5076477;28;20063;-60
2022/08/29 09:07:04;;;;;;;17.23;6.20;;;;;;;24.14;100.00;102163.38;5083648;28;20028;-58
2022/08/29 09:10:02;;;;;;;25.92;10.35;;;;;;;24.60;100.00;102170.41;5079463;28;20028;-55
2022/08/29 09:12:50;;;;;;;28.13;12.57;;;;;;;24.77;100.00;102175.78;5073058;28;20045;-58
2022/08/29 09:15:22;;;;;;;12.68;4.95;;;;;;;24.95;100.00;102171.03;5072238;28;20041;-58
2022/08/29 09:17:59;;;;;;;10.20;3.93;;;;;;;25.25;98.88;102167.72;5080026;28;20036;-56
2022/08/29 09:20:33;;;;;;;12.03;4.93;;;;;;;25.40;98.06;102172.47;5077248;28;20040;-58
2022/08/29 09:23:01;;;;;;;9.50;4.27;;;;;;;25.35;97.32;102169.69;5073295;28;20032;-59
2022/08/29 09:25:29;;;;;;;14.30;5.47;;;;;;;25.46;98.03;102170.59;5078042;28;20028;-58
2022/08/29 09:27:57;;;;;;;15.70;4.20;;;;;;;25.50;96.61;102177.22;5074231;28;20024;-56
2022/08/29 09:30:26;;;;;;;9.33;3.57;;;;;;;25.61;93.97;102178.94;5068830;28;20138;-58
2022/08/29 09:33:00;;;;;;;10.13;3.10;;;;;;;25.90;92.86;102174.94;5072994;28;20025;-58
2022/08/29 09:35:36;;;;;;;7.17;2.57;;;;;;;26.60;90.04;102182.03;5078063;28;20031;-58
2022/08/29 09:38:16;;;;;;;9.27;3.65;;;;;;;27.11;83.89;102188.66;5076520;28;20036;-57
2022/08/29 09:41:01;;;;;;;9.50;3.80;;;;;;;29.01;72.24;102190.91;5074105;28;20052;-58
2022/08/29 09:43:43;;;;;;;6.22;3.03;;;;;;;29.17;68.60;102194.34;5080943;28;20045;-57
2022/08/29 09:46:17;;;;;;;6.28;2.75;;;;;;;28.62;69.46;102198.06;5079462;28;20051;-60
2022/08/29 09:48:47;;;;;;;13.45;6.32;;;;;;;28.38;69.56;102193.28;5078997;28;20032;-59
2022/08/29 09:51:29;;;;;;;88.22;49.15;;;;;;;28.21;68.73;102190.06;5078154;28;20040;-59
2022/08/29 09:54:25;;;;;;;49.75;29.40;;;;;;;28.00;68.16;102190.13;5079598;28;20052;-60
2022/08/29 09:57:04;;;;;;;90.40;50.85;;;;;;;28.38;67.76;102185.03;5078798;28;20055;-57
2022/08/29 09:59:32;;;;;;;70.53;37.92;;;;;;;28.84;64.52;102185.81;5079824;28;20032;-59
2022/08/29 10:02:15;;;;;;;51.90;27.85;;;;;;;28.65;65.12;102193.91;5074897;28;20029;-59
2022/08/29 10:04:43;;;;;;;40.50;21.65;;;;;;;30.36;59.71;102195.72;5076770;28;20029;-59
2022/08/29 10:07:16;;;;;;;29.55;14.70;;;;;;;31.22;53.62;102193.84;5074702;28;20112;-58
2022/08/29 10:10:12;;;;;;;20.05;11.30;;;;;;;30.80;55.31;102188.19;5075875;28;20033;-59
2022/08/29 10:13:17;;;;;;;19.27;10.00;;;;;;;29.84;58.77;102190.06;5075250;28;20033;-61
2022/08/29 10:15:51;;;;;;;9.80;4.40;;;;;;;29.28;61.77;102189.56;5074575;28;20040;-60
2022/08/29 10:18:33;;;;;;;10.40;3.70;;;;;;;28.83;62.69;102184.16;5073510;28;20036;-58
2022/08/29 10:21:17;;;;;;;9.35;3.45;;;;;;;29.42;66.76;102195.22;5079838;28;20063;-59
2022/08/29 10:23:54;;;;;;;8.88;4.03;;;;;;;28.91;64.78;102189.06;5081601;28;20055;-58
2022/08/29 10:26:43;;;;;;;7.85;3.15;;;;;;;28.66;64.81;102193.63;5076701;28;20033;-62
2022/08/29 10:29:20;;;;;;;13.38;2.95;;;;;;;29.07;65.94;102200.75;5076761;28;20096;-58
2022/08/29 10:31:54;;;;;;;88.72;49.95;;;;;;;28.84;65.30;102192.13;5079420;28;20039;-58
2022/08/29 10:34:51;;;;;;;83.80;50.40;;;;;;;29.05;63.65;102192.78;5075007;28;20067;-59
2022/08/29 10:37:38;;;;;;;75.65;43.75;;;;;;;29.09;64.66;102189.47;5076838;28;20039;-59
2022/08/29 10:40:12;;;;;;;49.38;25.48;;;;;;;29.43;62.43;102186.69;5070989;28;20029;-59
2022/08/29 10:42:44;;;;;;;37.15;21.15;;;;;;;30.23;61.27;102180.75;5074517;28;20143;-58
2022/08/29 10:45:38;;;;;;;41.10;21.45;;;;;;;30.45;59.73;102173.81;5081269;28;20031;-60
2022/08/29 10:48:15;;;;;;;20.95;11.00;;;;;;;32.08;52.89;102185.25;5073745;28;20037;-59
2022/08/29 10:51:00;;;;;;;20.70;9.85;;;;;;;31.86;54.66;102181.28;5078069;28;20051;-57
2022/08/29 10:53:39;;;;;;;14.55;5.47;;;;;;;32.67;49.56;102182.50;5080144;28;20055;-59
2022/08/29 10:56:20;;;;;;;11.48;3.20;;;;;;;32.03;49.94;102175.94;5076298;28;20033;-59
2022/08/29 10:59:02;;;;;;;11.55;4.82;;;;;;;32.61;49.13;102175.47;5081424;28;20037;-59
2022/08/29 11:01:39;;;;;;;9.00;4.25;;;;;;;33.37;46.55;102181.28;5083385;28;20020;-60
2022/08/29 11:04:17;;;;;;;50.38;29.08;;;;;;;34.05;45.56;102175.47;5082083;28;20052;-58
2022/08/29 11:06:50;;;;;;;96.78;56.38;;;;;;;34.52;45.00;102172.06;5079865;28;20054;-57
2022/08/29 11:09:21;;;;;;;18.70;9.18;;;;;;;33.95;44.95;102173.00;5073629;28;20033;-57
2022/08/29 11:12:09;;;;;;;11.15;5.22;;;;;;;34.12;45.91;102156.34;5076187;28;20598;-58
2022/08/29 11:15:00;;;;;;;55.25;34.40;;;;;;;35.22;41.32;102156.38;5067531;28;20033;-58
2022/08/29 11:17:33;;;;;;;39.58;25.83;;;;;;;34.86;41.15;102153.69;5069181;28;20037;-57
2022/08/29 11:20:23;;;;;;;8.15;3.28;;;;;;;33.16;42.75;102152.19;5078469;28;20027;-55
2022/08/29 11:22:54;;;;;;;16.38;10.23;;;;;;;32.36;48.39;102151.97;5079436;28;20033;-57
2022/08/29 11:25:21;;;;;;;19.65;9.52;;;;;;;31.88;48.69;102138.38;5076279;28;20047;-57
2022/08/29 11:27:57;;;;;;;11.85;6.35;;;;;;;31.35;51.11;102145.25;5076914;28;20028;-59